sensor_id;sensor_type;location;lat;lon;timestamp;pressure;altitude;pressure_sealevel;temperature;humidity
35435;BME280;21556;55.782;37.528;2023-08-06T00:00:46;99986.88;;;27.37;100.00
35435;BME280;21556;55.782;37.528;2023-08-06T00:03:12;99992.16;;;27.57;100.00
35435;BME280;21556;55.782;37.528;2023-08-06T00:05:41;99989.00;;;27.67;100.00
35435;BME280;21556;55.782;37.528;2023-08-06T00:08:07;99987.13;;;27.69;100.00
35435;BME280;21556;55.782;37.528;2023-08-06T00:10:32;99999.56;;;27.90;100.00
35435;BME280;21556;55.782;37.528;2023-08-06T00:12:58;99998.03;;;27.84;100.00
35435;BME280;21556;55.782;37.528;2023-08-06T00:15:31;99986.28;;;27.30;100.00
35435;BME280;21556;55.782;37.528;2023-08-06T00:17:57;99993.69;;;27.06;100.00
35435;BME280;21556;55.782;37.528;2023-08-06T00:20:27;99996.72;;;26.80;100.00
35435;BME280;21556;55.782;37.528;2023-08-06T00:22:55;99991.75;;;26.89;100.00
35435;BME280;21556;55.782;37.528;2023-08-06T00:25:21;99995.38;;;27.09;100.00
35435;BME280;21556;55.782;37.528;2023-08-06T00:27:46;100001.94;;;27.22;100.00
35435;BME280;21556;55.782;37.528;2023-08-06T00:30:12;99997.97;;;27.10;100.00
35435;BME280;21556;55.782;37.528;2023-08-06T00:32:38;99997.59;;;26.99;100.00
35435;BME280;21556;55.782;37.528;2023-08-06T00:35:04;99995.41;;;27.07;100.00
35435;BME280;21556;55.782;37.528;2023-08-06T00:37:30;99996.13;;;27.13;100.00
35435;BME280;21556;55.782;37.528;2023-08-06T00:39:56;99996.91;;;27.15;100.00
35435;BME280;21556;55.782;37.528;2023-08-06T00:42:22;100007.88;;;26.91;100.00
35435;BME280;21556;55.782;37.528;2023-08-06T00:44:50;100005.41;;;27.05;100.00
35435;BME280;21556;55.782;37.528;2023-08-06T00:47:19;99994.34;;;26.72;100.00
35435;BME280;21556;55.782;37.528;2023-08-06T00:49:46;100003.00;;;26.99;100.00
35435;BME280;21556;55.782;37.528;2023-08-06T00:52:12;99994.88;;;27.20;100.00
35435;BME280;21556;55.782;37.528;2023-08-06T00:54:39;100004.00;;;27.17;100.00
35435;BME280;21556;55.782;37.528;2023-08-06T00:57:05;99997.50;;;27.21;100.00
35435;BME280;21556;55.782;37.528;2023-08-06T00:59:32;99995.91;;;27.36;100.00
35435;BME280;21556;55.782;37.528;2023-08-06T01:01:58;99998.69;;;27.34;100.00
35435;BME280;21556;55.782;37.528;2023-08-06T01:04:26;100002.09;;;27.38;100.00
35435;BME280;21556;55.782;37.528;2023-08-06T01:07:04;100007.66;;;27.52;100.00
35435;BME280;21556;55.782;37.528;2023-08-06T01:09:53;100012.84;;;27.19;100.00
35435;BME280;21556;55.782;37.528;2023-08-06T01:12:34;100015.69;;;27.54;100.00
35435;BME280;21556;55.782;37.528;2023-08-06T01:15:10;100006.59;;;27.38;100.00
35435;BME280;21556;55.782;37.528;2023-08-06T01:17:39;100012.94;;;27.36;100.00
35435;BME280;21556;55.782;37.528;2023-08-06T01:20:06;100005.72;;;27.37;100.00
35435;BME280;21556;55.782;37.528;2023-08-06T01:22:33;100002.88;;;27.40;100.00
35435;BME280;21556;55.782;37.528;2023-08-06T01:25:02;100008.78;;;27.29;100.00
35435;BME280;21556;55.782;37.528;2023-08-06T01:27:47;100006.63;;;26.98;100.00
35435;BME280;21556;55.782;37.528;2023-08-06T01:30:25;100004.50;;;27.25;100.00
35435;BME280;21556;55.782;37.528;2023-08-06T01:32:58;100007.41;;;27.40;100.00
35435;BME280;21556;55.782;37.528;2023-08-06T01:35:27;100008.41;;;27.37;100.00
35435;BME280;21556;55.782;37.528;2023-08-06T01:37:54;100009.50;;;27.33;100.00
35435;BME280;21556;55.782;37.528;2023-08-06T01:40:22;100012.44;;;27.08;100.00
35435;BME280;21556;55.782;37.528;2023-08-06T01:42:48;100013.66;;;27.40;100.00
35435;BME280;21556;55.782;37.528;2023-08-06T01:45:17;100014.84;;;27.34;100.00
35435;BME280;21556;55.782;37.528;2023-08-06T01:47:45;100013.28;;;27.48;100.00
35435;BME280;21556;55.782;37.528;2023-08-06T01:50:11;100014.03;;;27.32;100.00
35435;BME280;21556;55.782;37.528;2023-08-06T01:52:37;100016.59;;;27.35;100.00
35435;BME280;21556;55.782;37.528;2023-08-06T01:55:03;100012.56;;;27.25;100.00
35435;BME280;21556;55.782;37.528;2023-08-06T01:57:32;100016.88;;;27.29;100.00
35435;BME280;21556;55.782;37.528;2023-08-06T01:59:58;100018.53;;;26.93;100.00
35435;BME280;21556;55.782;37.528;2023-08-06T02:02:24;100018.41;;;26.96;100.00
35435;BME280;21556;55.782;37.528;2023-08-06T02:04:50;100028.94;;;26.81;100.00
35435;BME280;21556;55.782;37.528;2023-08-06T02:07:16;100023.56;;;27.00;100.00
35435;BME280;21556;55.782;37.528;2023-08-06T02:09:42;100038.22;;;26.54;100.00
35435;BME280;21556;55.782;37.528;2023-08-06T02:12:08;100030.63;;;26.84;100.00
35435;BME280;21556;55.782;37.528;2023-08-06T02:14:35;100030.38;;;26.70;100.00
35435;BME280;21556;55.782;37.528;2023-08-06T02:17:01;100026.88;;;26.86;100.00
35435;BME280;21556;55.782;37.528;2023-08-06T02:19:27;100031.41;;;26.86;100.00
35435;BME280;21556;55.782;37.528;2023-08-06T02:21:53;100029.09;;;26.97;100.00
35435;BME280;21556;55.782;37.528;2023-08-06T02:24:18;100035.53;;;26.54;100.00
35435;BME280;21556;55.782;37.528;2023-08-06T02:26:44;100036.50;;;26.31;100.00
35435;BME280;21556;55.782;37.528;2023-08-06T02:29:13;100046.31;;;26.32;100.00
35435;BME280;21556;55.782;37.528;2023-08-06T02:31:42;100044.31;;;26.37;100.00
35435;BME280;21556;55.782;37.528;2023-08-06T02:34:08;100036.59;;;26.50;100.00
35435;BME280;21556;55.782;37.528;2023-08-06T02:36:34;100042.72;;;26.33;100.00
35435;BME280;21556;55.782;37.528;2023-08-06T02:39:00;100049.81;;;26.56;100.00
35435;BME280;21556;55.782;37.528;2023-08-06T02:41:26;100044.38;;;26.35;100.00
35435;BME280;21556;55.782;37.528;2023-08-06T02:43:52;100039.47;;;26.45;100.00
35435;BME280;21556;55.782;37.528;2023-08-06T02:46:18;100040.13;;;26.52;100.00
35435;BME280;21556;55.782;37.528;2023-08-06T02:48:45;100033.28;;;26.43;100.00
35435;BME280;21556;55.782;37.528;2023-08-06T02:51:12;100036.88;;;26.44;100.00
35435;BME280;21556;55.782;37.528;2023-08-06T02:53:37;100028.47;;;26.72;100.00
35435;BME280;21556;55.782;37.528;2023-08-06T02:56:07;100038.63;;;26.65;100.00
35435;BME280;21556;55.782;37.528;2023-08-06T02:58:45;100040.19;;;26.71;100.00
35435;BME280;21556;55.782;37.528;2023-08-06T03:01:27;100034.28;;;26.62;100.00
35435;BME280;21556;55.782;37.528;2023-08-06T03:03:59;100042.47;;;26.59;100.00
35435;BME280;21556;55.782;37.528;2023-08-06T03:06:31;100037.88;;;26.61;100.00
35435;BME280;21556;55.782;37.528;2023-08-06T03:08:59;100029.72;;;26.83;100.00
35435;BME280;21556;55.782;37.528;2023-08-06T03:11:26;100032.34;;;27.05;100.00
35435;BME280;21556;55.782;37.528;2023-08-06T03:13:57;100025.53;;;26.97;100.00
35435;BME280;21556;55.782;37.528;2023-08-06T03:16:25;100030.88;;;26.98;100.00
35435;BME280;21556;55.782;37.528;2023-08-06T03:18:52;100034.13;;;26.66;100.00
35435;BME280;21556;55.782;37.528;2023-08-06T03:21:22;100032.34;;;26.85;100.00
35435;BME280;21556;55.782;37.528;2023-08-06T03:23:48;100040.91;;;26.54;100.00
35435;BME280;21556;55.782;37.528;2023-08-06T03:26:16;100034.13;;;26.66;100.00
35435;BME280;21556;55.782;37.528;2023-08-06T03:28:44;100034.09;;;26.45;100.00
35435;BME280;21556;55.782;37.528;2023-08-06T03:31:15;100030.44;;;26.48;100.00
35435;BME280;21556;55.782;37.528;2023-08-06T03:33:44;100033.91;;;26.50;100.00
35435;BME280;21556;55.782;37.528;2023-08-06T03:36:15;100037.44;;;26.52;100.00
35435;BME280;21556;55.782;37.528;2023-08-06T03:38:42;100039.03;;;26.76;100.00
35435;BME280;21556;55.782;37.528;2023-08-06T03:41:13;100037.16;;;26.97;100.00
35435;BME280;21556;55.782;37.528;2023-08-06T03:43:39;100035.25;;;26.60;100.00
35435;BME280;21556;55.782;37.528;2023-08-06T03:46:12;100040.38;;;26.66;100.00
35435;BME280;21556;55.782;37.528;2023-08-06T03:48:38;100035.25;;;26.60;100.00
35435;BME280;21556;55.782;37.528;2023-08-06T03:51:04;100037.69;;;26.66;100.00
35435;BME280;21556;55.782;37.528;2023-08-06T03:53:31;100039.69;;;27.02;100.00
35435;BME280;21556;55.782;37.528;2023-08-06T03:55:58;100038.72;;;27.03;100.00
35435;BME280;21556;55.782;37.528;2023-08-06T03:58:26;100031.00;;;26.95;100.00
35435;BME280;21556;55.782;37.528;2023-08-06T04:01:01;100035.50;;;26.95;100.00
35435;BME280;21556;55.782;37.528;2023-08-06T04:03:35;100032.25;;;27.07;100.00
35435;BME280;21556;55.782;37.528;2023-08-06T04:06:02;100023.84;;;27.15;100.00
35435;BME280;21556;55.782;37.528;2023-08-06T04:08:28;100031.38;;;27.06;100.00
35435;BME280;21556;55.782;37.528;2023-08-06T04:10:54;100026.63;;;27.13;100.00
35435;BME280;21556;55.782;37.528;2023-08-06T04:13:21;100019.28;;;27.17;100.00
35435;BME280;21556;55.782;37.528;2023-08-06T04:15:49;100016.94;;;27.28;100.00
35435;BME280;21556;55.782;37.528;2023-08-06T04:18:15;100028.88;;;27.22;100.00
35435;BME280;21556;55.782;37.528;2023-08-06T04:20:47;100018.78;;;27.27;100.00
35435;BME280;21556;55.782;37.528;2023-08-06T04:23:14;100016.22;;;27.43;100.00
35435;BME280;21556;55.782;37.528;2023-08-06T04:25:41;100028.81;;;27.43;100.00
35435;BME280;21556;55.782;37.528;2023-08-06T04:28:07;100028.94;;;27.58;100.00
35435;BME280;21556;55.782;37.528;2023-08-06T04:30:33;100022.09;;;27.51;100.00
35435;BME280;21556;55.782;37.528;2023-08-06T04:33:00;100021.88;;;27.56;100.00
35435;BME280;21556;55.782;37.528;2023-08-06T04:35:26;100024.41;;;27.59;100.00
35435;BME280;21556;55.782;37.528;2023-08-06T04:37:52;100028.66;;;27.65;100.00
35435;BME280;21556;55.782;37.528;2023-08-06T04:40:21;100026.97;;;27.62;100.00
35435;BME280;21556;55.782;37.528;2023-08-06T04:42:47;100023.31;;;27.63;100.00
35435;BME280;21556;55.782;37.528;2023-08-06T04:45:14;100023.84;;;27.71;100.00
35435;BME280;21556;55.782;37.528;2023-08-06T04:47:39;100032.84;;;27.70;100.00
35435;BME280;21556;55.782;37.528;2023-08-06T04:50:06;100029.22;;;27.71;100.00
35435;BME280;21556;55.782;37.528;2023-08-06T04:52:32;100024.72;;;27.72;100.00
35435;BME280;21556;55.782;37.528;2023-08-06T04:54:57;100033.03;;;27.86;100.00
35435;BME280;21556;55.782;37.528;2023-08-06T04:57:23;100032.84;;;27.70;100.00
35435;BME280;21556;55.782;37.528;2023-08-06T04:59:49;100030.38;;;27.84;100.00
35435;BME280;21556;55.782;37.528;2023-08-06T05:02:15;100027.78;;;27.83;100.00
35435;BME280;21556;55.782;37.528;2023-08-06T05:04:41;100024.22;;;27.82;100.00
35435;BME280;21556;55.782;37.528;2023-08-06T05:07:10;100030.38;;;28.03;100.00
35435;BME280;21556;55.782;37.528;2023-08-06T05:09:37;100034.50;;;28.11;100.00
35435;BME280;21556;55.782;37.528;2023-08-06T05:12:04;100019.72;;;28.00;100.00
35435;BME280;21556;55.782;37.528;2023-08-06T05:14:30;100015.75;;;28.25;100.00
35435;BME280;21556;55.782;37.528;2023-08-06T05:16:56;100016.69;;;28.06;100.00
35435;BME280;21556;55.782;37.528;2023-08-06T05:19:21;100009.50;;;28.24;100.00
35435;BME280;21556;55.782;37.528;2023-08-06T05:21:49;100018.66;;;28.39;100.00
35435;BME280;21556;55.782;37.528;2023-08-06T05:24:15;100008.94;;;28.35;100.00
35435;BME280;21556;55.782;37.528;2023-08-06T05:26:41;100006.06;;;28.40;100.00
35435;BME280;21556;55.782;37.528;2023-08-06T05:29:08;100019.72;;;28.35;100.00
35435;BME280;21556;55.782;37.528;2023-08-06T05:31:33;100001.66;;;28.37;100.00
35435;BME280;21556;55.782;37.528;2023-08-06T05:33:59;100005.16;;;28.39;100.00
35435;BME280;21556;55.782;37.528;2023-08-06T05:36:26;99990.19;;;28.51;100.00
35435;BME280;21556;55.782;37.528;2023-08-06T05:38:53;100001.88;;;28.67;100.00
35435;BME280;21556;55.782;37.528;2023-08-06T05:41:20;99997.41;;;28.84;100.00
35435;BME280;21556;55.782;37.528;2023-08-06T05:43:48;100005.16;;;28.90;100.00
35435;BME280;21556;55.782;37.528;2023-08-06T05:46:13;99995.06;;;29.11;100.00
35435;BME280;21556;55.782;37.528;2023-08-06T05:48:39;100004.31;;;29.22;100.00
35435;BME280;21556;55.782;37.528;2023-08-06T05:51:06;100002.66;;;29.36;100.00
35435;BME280;21556;55.782;37.528;2023-08-06T05:53:33;99996.94;;;29.42;100.00
35435;BME280;21556;55.782;37.528;2023-08-06T05:55:59;99996.91;;;29.58;100.00
35435;BME280;21556;55.782;37.528;2023-08-06T05:58:26;99995.59;;;29.81;100.00
35435;BME280;21556;55.782;37.528;2023-08-06T06:00:56;99992.13;;;30.25;100.00
35435;BME280;21556;55.782;37.528;2023-08-06T06:03:22;99994.47;;;30.31;100.00
35435;BME280;21556;55.782;37.528;2023-08-06T06:05:50;99997.22;;;30.45;100.00
35435;BME280;21556;55.782;37.528;2023-08-06T06:08:17;99994.91;;;30.67;100.00
35435;BME280;21556;55.782;37.528;2023-08-06T06:10:43;99990.66;;;30.63;100.00
35435;BME280;21556;55.782;37.528;2023-08-06T06:13:09;99995.94;;;30.95;100.00
35435;BME280;21556;55.782;37.528;2023-08-06T06:15:36;99993.53;;;31.05;100.00
35435;BME280;21556;55.782;37.528;2023-08-06T06:18:02;99992.13;;;31.12;100.00
35435;BME280;21556;55.782;37.528;2023-08-06T06:20:28;99993.97;;;30.83;100.00
35435;BME280;21556;55.782;37.528;2023-08-06T06:22:54;99991.19;;;31.13;100.00
35435;BME280;21556;55.782;37.528;2023-08-06T06:25:20;99983.94;;;31.13;100.00
35435;BME280;21556;55.782;37.528;2023-08-06T06:27:47;99984.66;;;31.30;100.00
35435;BME280;21556;55.782;37.528;2023-08-06T06:30:14;99981.78;;;31.33;100.00
35435;BME280;21556;55.782;37.528;2023-08-06T06:32:40;99983.44;;;31.35;100.00
35435;BME280;21556;55.782;37.528;2023-08-06T06:35:09;99983.13;;;31.81;100.00
35435;BME280;21556;55.782;37.528;2023-08-06T06:37:35;99985.97;;;31.65;100.00
35435;BME280;21556;55.782;37.528;2023-08-06T06:40:04;99991.19;;;31.69;100.00
35435;BME280;21556;55.782;37.528;2023-08-06T06:42:30;99987.16;;;31.61;100.00
35435;BME280;21556;55.782;37.528;2023-08-06T06:45:00;99975.84;;;32.09;100.00
35435;BME280;21556;55.782;37.528;2023-08-06T06:47:26;99984.25;;;32.31;100.00
35435;BME280;21556;55.782;37.528;2023-08-06T06:49:52;99989.81;;;32.43;100.00
35435;BME280;21556;55.782;37.528;2023-08-06T06:52:20;99976.16;;;32.57;100.00
35435;BME280;21556;55.782;37.528;2023-08-06T06:54:46;99974.34;;;32.57;100.00
35435;BME280;21556;55.782;37.528;2023-08-06T06:57:12;99975.50;;;32.66;100.00
35435;BME280;21556;55.782;37.528;2023-08-06T06:59:38;99969.66;;;32.98;100.00
35435;BME280;21556;55.782;37.528;2023-08-06T07:02:03;99972.91;;;33.03;100.00
35435;BME280;21556;55.782;37.528;2023-08-06T07:04:29;99978.09;;;33.19;100.00
35435;BME280;21556;55.782;37.528;2023-08-06T07:06:56;99973.09;;;33.62;100.00
35435;BME280;21556;55.782;37.528;2023-08-06T07:09:22;99969.34;;;33.52;100.00
35435;BME280;21556;55.782;37.528;2023-08-06T07:11:48;99966.56;;;33.89;100.00
35435;BME280;21556;55.782;37.528;2023-08-06T07:14:14;99965.59;;;34.14;100.00
35435;BME280;21556;55.782;37.528;2023-08-06T07:16:51;99963.13;;;34.91;100.00
35435;BME280;21556;55.782;37.528;2023-08-06T07:19:17;99962.38;;;35.45;100.00
35435;BME280;21556;55.782;37.528;2023-08-06T07:21:43;99962.72;;;35.40;100.00
35435;BME280;21556;55.782;37.528;2023-08-06T07:24:09;99956.44;;;36.15;97.84
35435;BME280;21556;55.782;37.528;2023-08-06T07:26:34;99964.91;;;36.33;100.00
35435;BME280;21556;55.782;37.528;2023-08-06T07:29:05;99956.84;;;36.74;100.00
35435;BME280;21556;55.782;37.528;2023-08-06T07:31:31;99957.09;;;37.32;97.84
35435;BME280;21556;55.782;37.528;2023-08-06T07:33:57;99951.16;;;37.67;85.98
35435;BME280;21556;55.782;37.528;2023-08-06T07:36:22;99955.03;;;36.84;93.69
35435;BME280;21556;55.782;37.528;2023-08-06T07:38:50;99959.06;;;37.61;87.06
35435;BME280;21556;55.782;37.528;2023-08-06T07:41:21;99956.34;;;37.61;87.13
35435;BME280;21556;55.782;37.528;2023-08-06T07:43:47;99947.44;;;38.36;86.25
35435;BME280;21556;55.782;37.528;2023-08-06T07:46:15;99949.72;;;37.73;85.39
35435;BME280;21556;55.782;37.528;2023-08-06T07:48:41;99955.91;;;38.33;79.79
35435;BME280;21556;55.782;37.528;2023-08-06T07:51:07;99954.38;;;38.11;81.90
35435;BME280;21556;55.782;37.528;2023-08-06T07:53:34;99951.88;;;38.57;77.84
35435;BME280;21556;55.782;37.528;2023-08-06T07:56:00;99952.84;;;38.65;78.44
35435;BME280;21556;55.782;37.528;2023-08-06T07:58:45;99944.53;;;38.47;78.01
35435;BME280;21556;55.782;37.528;2023-08-06T08:01:10;99944.44;;;39.14;76.37
35435;BME280;21556;55.782;37.528;2023-08-06T08:03:39;99952.38;;;38.80;75.95
35435;BME280;21556;55.782;37.528;2023-08-06T08:06:07;99955.41;;;39.14;73.38
35435;BME280;21556;55.782;37.528;2023-08-06T08:08:33;99949.50;;;39.64;71.38
35435;BME280;21556;55.782;37.528;2023-08-06T08:11:01;99945.41;;;39.50;72.12
35435;BME280;21556;55.782;37.528;2023-08-06T08:13:28;99937.84;;;39.07;74.34
35435;BME280;21556;55.782;37.528;2023-08-06T08:15:57;99952.81;;;38.85;76.54
35435;BME280;21556;55.782;37.528;2023-08-06T08:18:24;99932.84;;;38.92;75.68
35435;BME280;21556;55.782;37.528;2023-08-06T08:20:58;99934.56;;;39.31;73.83
35435;BME280;21556;55.782;37.528;2023-08-06T08:23:24;99934.44;;;38.95;78.37
35435;BME280;21556;55.782;37.528;2023-08-06T08:25:50;99923.44;;;40.13;67.84
35435;BME280;21556;55.782;37.528;2023-08-06T08:28:16;99936.38;;;39.85;68.91
35435;BME280;21556;55.782;37.528;2023-08-06T08:30:44;99939.25;;;40.19;69.17
35435;BME280;21556;55.782;37.528;2023-08-06T08:33:10;99931.00;;;39.48;75.65
35435;BME280;21556;55.782;37.528;2023-08-06T08:35:36;99921.06;;;39.83;77.77
35435;BME280;21556;55.782;37.528;2023-08-06T08:38:03;99932.16;;;39.73;76.14
35435;BME280;21556;55.782;37.528;2023-08-06T08:40:35;99936.00;;;39.80;77.20
35435;BME280;21556;55.782;37.528;2023-08-06T08:43:09;99938.47;;;39.56;81.18
35435;BME280;21556;55.782;37.528;2023-08-06T08:45:36;99934.25;;;39.97;76.74
35435;BME280;21556;55.782;37.528;2023-08-06T08:48:05;99931.97;;;39.29;80.82
35435;BME280;21556;55.782;37.528;2023-08-06T08:50:31;99931.13;;;39.74;81.47
35435;BME280;21556;55.782;37.528;2023-08-06T08:52:57;99929.00;;;39.86;81.91
35435;BME280;21556;55.782;37.528;2023-08-06T08:55:24;99927.16;;;39.41;82.36
35435;BME280;21556;55.782;37.528;2023-08-06T08:57:51;99928.06;;;39.77;78.73
35435;BME280;21556;55.782;37.528;2023-08-06T09:00:16;99932.34;;;39.07;85.71
35435;BME280;21556;55.782;37.528;2023-08-06T09:02:43;99927.16;;;39.59;81.77
35435;BME280;21556;55.782;37.528;2023-08-06T09:05:09;99922.81;;;39.38;85.36
35435;BME280;21556;55.782;37.528;2023-08-06T09:07:38;99920.13;;;40.10;81.80
35435;BME280;21556;55.782;37.528;2023-08-06T09:10:07;99916.09;;;39.23;84.59
35435;BME280;21556;55.782;37.528;2023-08-06T09:12:36;99915.78;;;39.54;82.78
35435;BME280;21556;55.782;37.528;2023-08-06T09:15:01;99926.31;;;38.66;92.19
35435;BME280;21556;55.782;37.528;2023-08-06T09:17:29;99914.03;;;38.60;91.75
35435;BME280;21556;55.782;37.528;2023-08-06T09:19:55;99914.13;;;39.15;83.78
35435;BME280;21556;55.782;37.528;2023-08-06T09:22:21;99906.00;;;39.69;81.81
35435;BME280;21556;55.782;37.528;2023-08-06T09:24:47;99908.78;;;39.41;88.15
35435;BME280;21556;55.782;37.528;2023-08-06T09:27:13;99903.34;;;39.77;81.77
35435;BME280;21556;55.782;37.528;2023-08-06T09:29:43;99905.19;;;39.41;86.72
35435;BME280;21556;55.782;37.528;2023-08-06T09:32:09;99907.59;;;39.71;81.63
35435;BME280;21556;55.782;37.528;2023-08-06T09:34:34;99909.16;;;39.74;81.63
35435;BME280;21556;55.782;37.528;2023-08-06T09:37:00;99911.94;;;39.46;83.78
35435;BME280;21556;55.782;37.528;2023-08-06T09:39:29;99909.97;;;40.10;77.00
35435;BME280;21556;55.782;37.528;2023-08-06T09:41:57;99902.00;;;39.81;77.37
35435;BME280;21556;55.782;37.528;2023-08-06T09:44:23;99891.38;;;39.68;79.00
35435;BME280;21556;55.782;37.528;2023-08-06T09:46:51;99895.66;;;39.99;80.17
35435;BME280;21556;55.782;37.528;2023-08-06T09:49:20;99897.97;;;39.12;85.71
35435;BME280;21556;55.782;37.528;2023-08-06T09:51:48;99900.69;;;39.85;78.98
35435;BME280;21556;55.782;37.528;2023-08-06T09:54:17;99885.03;;;39.68;79.12
35435;BME280;21556;55.782;37.528;2023-08-06T09:56:46;99886.19;;;39.65;78.56
35435;BME280;21556;55.782;37.528;2023-08-06T09:59:13;99883.00;;;39.34;78.96
35435;BME280;21556;55.782;37.528;2023-08-06T10:01:42;99878.53;;;39.87;77.12
35435;BME280;21556;55.782;37.528;2023-08-06T10:04:08;99885.66;;;38.61;87.59
35435;BME280;21556;55.782;37.528;2023-08-06T10:06:34;99864.63;;;38.89;88.31
35435;BME280;21556;55.782;37.528;2023-08-06T10:09:05;99871.94;;;38.98;91.02
35435;BME280;21556;55.782;37.528;2023-08-06T10:11:31;99866.81;;;38.86;90.80
35435;BME280;21556;55.782;37.528;2023-08-06T10:14:04;99859.84;;;38.91;90.63
35435;BME280;21556;55.782;37.528;2023-08-06T10:16:32;99870.44;;;39.32;82.74
35435;BME280;21556;55.782;37.528;2023-08-06T10:18:59;99863.53;;;39.00;83.98
35435;BME280;21556;55.782;37.528;2023-08-06T10:21:27;99860.22;;;38.96;85.58
35435;BME280;21556;55.782;37.528;2023-08-06T10:23:55;99850.09;;;38.32;89.24
35435;BME280;21556;55.782;37.528;2023-08-06T10:26:24;99846.84;;;38.93;85.57
35435;BME280;21556;55.782;37.528;2023-08-06T10:28:50;99841.34;;;39.57;80.22
35435;BME280;21556;55.782;37.528;2023-08-06T10:31:18;99834.69;;;39.95;77.91
35435;BME280;21556;55.782;37.528;2023-08-06T10:33:45;99848.75;;;39.74;80.77
35435;BME280;21556;55.782;37.528;2023-08-06T10:36:12;99847.47;;;39.86;79.39
35435;BME280;21556;55.782;37.528;2023-08-06T10:38:48;99844.50;;;39.26;81.77
35435;BME280;21556;55.782;37.528;2023-08-06T10:41:30;99841.91;;;39.78;76.94
35435;BME280;21556;55.782;37.528;2023-08-06T10:44:06;99831.50;;;40.08;76.47
35435;BME280;21556;55.782;37.528;2023-08-06T10:46:33;99842.25;;;38.57;84.76
35435;BME280;21556;55.782;37.528;2023-08-06T10:48:59;99849.25;;;39.24;81.54
35435;BME280;21556;55.782;37.528;2023-08-06T10:51:26;99845.75;;;38.76;83.98
35435;BME280;21556;55.782;37.528;2023-08-06T10:53:56;99838.19;;;38.14;84.99
35435;BME280;21556;55.782;37.528;2023-08-06T10:56:26;99845.13;;;37.69;90.58
35435;BME280;21556;55.782;37.528;2023-08-06T10:58:53;99839.47;;;37.13;94.95
35435;BME280;21556;55.782;37.528;2023-08-06T11:01:21;99831.00;;;36.75;100.00
35435;BME280;21556;55.782;37.528;2023-08-06T11:03:48;99833.72;;;36.14;100.00
35435;BME280;21556;55.782;37.528;2023-08-06T11:06:18;99841.84;;;36.04;100.00
35435;BME280;21556;55.782;37.528;2023-08-06T11:08:51;99841.91;;;36.45;100.00
35435;BME280;21556;55.782;37.528;2023-08-06T11:11:19;99840.22;;;36.23;100.00
35435;BME280;21556;55.782;37.528;2023-08-06T11:13:49;99837.47;;;36.44;100.00
35435;BME280;21556;55.782;37.528;2023-08-06T11:16:15;99842.44;;;36.29;100.00
35435;BME280;21556;55.782;37.528;2023-08-06T11:18:42;99835.94;;;36.30;99.56
35435;BME280;21556;55.782;37.528;2023-08-06T11:21:09;99827.78;;;36.09;100.00
35435;BME280;21556;55.782;37.528;2023-08-06T11:23:35;99825.19;;;36.07;100.00
35435;BME280;21556;55.782;37.528;2023-08-06T11:26:01;99826.47;;;36.24;100.00
35435;BME280;21556;55.782;37.528;2023-08-06T11:28:27;99829.31;;;35.49;100.00
35435;BME280;21556;55.782;37.528;2023-08-06T11:30:53;99821.50;;;35.97;100.00
35435;BME280;21556;55.782;37.528;2023-08-06T11:33:23;99821.19;;;35.90;100.00
35435;BME280;21556;55.782;37.528;2023-08-06T11:35:59;99826.69;;;35.79;100.00
35435;BME280;21556;55.782;37.528;2023-08-06T11:38:29;99832.41;;;35.44;100.00
35435;BME280;21556;55.782;37.528;2023-08-06T11:40:55;99825.50;;;35.40;100.00
35435;BME280;21556;55.782;37.528;2023-08-06T11:43:21;99824.97;;;35.57;100.00
35435;BME280;21556;55.782;37.528;2023-08-06T11:45:49;99816.66;;;35.48;100.00
35435;BME280;21556;55.782;37.528;2023-08-06T11:48:18;99819.88;;;35.20;100.00
35435;BME280;21556;55.782;37.528;2023-08-06T11:50:46;99815.91;;;35.25;100.00
35435;BME280;21556;55.782;37.528;2023-08-06T11:53:13;99818.97;;;35.31;100.00
35435;BME280;21556;55.782;37.528;2023-08-06T11:55:42;99818.22;;;35.29;100.00
35435;BME280;21556;55.782;37.528;2023-08-06T11:58:09;99820.28;;;35.16;100.00
35435;BME280;21556;55.782;37.528;2023-08-06T12:00:38;99817.56;;;35.16;100.00
35435;BME280;21556;55.782;37.528;2023-08-06T12:03:04;99812.75;;;35.08;100.00
35435;BME280;21556;55.782;37.528;2023-08-06T12:05:32;99811.78;;;34.87;100.00
35435;BME280;21556;55.782;37.528;2023-08-06T12:08:02;99801.34;;;35.03;100.00
35435;BME280;21556;55.782;37.528;2023-08-06T12:10:30;99795.75;;;35.16;100.00
35435;BME280;21556;55.782;37.528;2023-08-06T12:12:57;99798.06;;;35.20;100.00
35435;BME280;21556;55.782;37.528;2023-08-06T12:15:25;99798.16;;;35.30;100.00
35435;BME280;21556;55.782;37.528;2023-08-06T12:17:51;99800.22;;;35.06;100.00
35435;BME280;21556;55.782;37.528;2023-08-06T12:20:19;99791.09;;;34.84;100.00
35435;BME280;21556;55.782;37.528;2023-08-06T12:22:45;99796.91;;;34.91;100.00
35435;BME280;21556;55.782;37.528;2023-08-06T12:25:23;99793.22;;;34.47;100.00
35435;BME280;21556;55.782;37.528;2023-08-06T12:27:52;99801.88;;;34.63;100.00
35435;BME280;21556;55.782;37.528;2023-08-06T12:30:18;99792.72;;;34.53;100.00
35435;BME280;21556;55.782;37.528;2023-08-06T12:32:46;99791.56;;;34.89;100.00
35435;BME280;21556;55.782;37.528;2023-08-06T12:35:12;99779.38;;;34.50;100.00
35435;BME280;21556;55.782;37.528;2023-08-06T12:37:39;99788.84;;;34.78;100.00
35435;BME280;21556;55.782;37.528;2023-08-06T12:40:12;99794.22;;;34.68;100.00